Time,TemperatureF,DewpointF,PressureIn,WindDirection,WindDirectionDegrees,WindSpeedMPH,WindSpeedGustMPH,Humidity,HourlyPrecipIn,Conditions,Clouds,dailyrainin,SoftwareType,DateUTC
2013-01-24 00:00:00,0.0,-9.0,30.07,NNW,328,0.0,9.5,65,0.00,,,0.00,WUHU216PEETBRO,2013-01-24 05:00:00,
2013-01-24 00:01:00,-0.1,-9.2,30.07,NNW,328,0.0,9.5,64,0.00,,,0.00,WUHU216PEETBRO,2013-01-24 05:01:00,
2013-01-24 00:03:00,0.1,-9.1,30.07,NNW,330,5.3,9.5,64,0.00,,,0.00,WUHU216PEETBRO,2013-01-24 05:03:00,
2013-01-24 00:08:00,0.4,-8.9,30.06,NNW,333,2.2,10.7,64,0.00,,,0.00,WUHU216PEETBRO,2013-01-24 05:08:00,
2013-01-24 00:13:00,0.1,-9.2,30.06,NW,307,0.0,10.7,64,0.00,,,0.00,WUHU216PEETBRO,2013-01-24 05:13:00,
2013-01-24 00:18:00,-0.1,-9.3,30.07,NW,323,0.0,7.7,64,0.00,,,0.00,WUHU216PEETBRO,2013-01-24 05:18:00,
2013-01-24 00:23:00,0.2,-9.0,30.07,NW,325,0.0,5.9,64,0.00,,,0.00,WUHU216PEETBRO,2013-01-24 05:23:00,
2013-01-24 00:28:00,-0.1,-9.1,30.07,NW,325,0.0,5.9,65,0.00,,,0.00,WUHU216PEETBRO,2013-01-24 05:28:00,
2013-01-24 00:33:00,-0.8,-9.7,30.07,NNE,23,0.0,6.6,65,0.00,,,0.00,WUHU216PEETBRO,2013-01-24 05:33:00,
2013-01-24 00:38:00,-0.8,-9.7,30.07,NNW,342,0.0,8.7,65,0.00,,,0.00,WUHU216PEETBRO,2013-01-24 05:38:00,
2013-01-24 00:43:00,-0.2,-9.0,30.07,North,6,0.0,8.7,65,0.00,,,0.00,WUHU216PEETBRO,2013-01-24 05:43:00,
2013-01-24 00:48:00,-0.6,-9.3,30.07,NNW,340,8.3,9.9,66,0.00,,,0.00,WUHU216PEETBRO,2013-01-24 05:48:00,
2013-01-24 00:53:00,0.2,-8.7,30.07,NW,324,2.0,9.9,65,0.00,,,0.00,WUHU216PEETBRO,2013-01-24 05:53:00,
2013-01-24 00:58:00,-0.4,-9.1,30.07,NNW,341,4.3,9.0,66,0.00,,,0.00,WUHU216PEETBRO,2013-01-24 05:58:00,
2013-01-24 01:03:00,0.0,-8.6,30.06,NNW,335,9.3,9.8,66,0.00,,,0.00,WUHU216PEETBRO,2013-01-24 06:03:00,
2013-01-24 01:08:00,-0.1,-8.8,30.06,NNW,335,0.0,10.7,66,0.00,,,0.00,WUHU216PEETBRO,2013-01-24 06:08:00,
2013-01-24 01:13:00,0.8,-7.8,30.06,NNW,340,6.5,10.7,66,0.00,,,0.00,WUHU216PEETBRO,2013-01-24 06:13:00,
2013-01-24 01:18:00,0.4,-8.4,30.06,NNW,334,4.2,10.6,65,0.00,,,0.00,WUHU216PEETBRO,2013-01-24 06:18:00,
2013-01-24 01:23:00,0.6,-8.2,30.07,NW,309,0.0,10.6,66,0.00,,,0.00,WUHU216PEETBRO,2013-01-24 06:23:00,
2013-01-24 01:28:00,-0.3,-9.2,30.07,NNW,334,0.0,8.1,65,0.00,,,0.00,WUHU216PEETBRO,2013-01-24 06:28:00,
2013-01-24 01:33:00,-1.0,-9.6,30.07,NNW,334,0.0,5.5,66,0.00,,,0.00,WUHU216PEETBRO,2013-01-24 06:33:00,
2013-01-24 01:38:00,-0.7,-9.1,30.07,NNW,333,0.0,6.6,67,0.00,,,0.00,WUHU216PEETBRO,2013-01-24 06:38:00,
2013-01-24 01:43:00,-1.4,-9.6,30.07,NNW,338,0.0,6.6,67,0.00,,,0.00,WUHU216PEETBRO,2013-01-24 06:43:00,
2013-01-24 01:48:00,-1.2,-9.2,30.07,NNW,338,0.0,5.1,68,0.00,,,0.00,WUHU216PEETBRO,2013-01-24 06:48:00,
2013-01-24 01:53:00,-1.0,-8.7,30.07,NNW,344,4.0,8.7,69,0.00,,,0.00,WUHU216PEETBRO,2013-01-24 06:53:00,
2013-01-24 01:58:00,-1.2,-8.8,30.07,NW,323,1.4,9.4,69,0.00,,,0.00,WUHU216PEETBRO,2013-01-24 06:58:00,
2013-01-24 02:03:00,-0.8,-8.3,30.07,NNW,344,4.0,10.5,70,0.00,,,0.00,WUHU216PEETBRO,2013-01-24 07:03:00,
2013-01-24 02:08:00,-0.9,-8.5,30.07,NNW,337,6.8,13.3,69,0.00,,,0.00,WUHU216PEETBRO,2013-01-24 07:08:00,
2013-01-24 02:13:00,-1.0,-8.6,30.07,North,349,4.5,13.3,69,0.00,,,0.00,WUHU216PEETBRO,2013-01-24 07:13:00,
2013-01-24 02:18:00,-0.8,-8.4,30.07,NNW,328,0.0,12.8,69,0.00,,,0.00,WUHU216PEETBRO,2013-01-24 07:18:00,
2013-01-24 02:23:00,-1.1,-8.8,30.07,NW,320,1.2,12.3,69,0.00,,,0.00,WUHU216PEETBRO,2013-01-24 07:23:00,
2013-01-24 02:28:00,-0.9,-8.8,30.07,NNW,330,3.4,12.0,68,0.00,,,0.00,WUHU216PEETBRO,2013-01-24 07:28:00,
2013-01-24 02:33:00,-1.3,-9.0,30.07,NNW,328,5.2,10.4,69,0.00,,,0.00,WUHU216PEETBRO,2013-01-24 07:33:00,
2013-01-24 02:38:00,-1.2,-8.9,30.07,NNW,347,5.5,8.9,69,0.00,,,0.00,WUHU216PEETBRO,2013-01-24 07:38:00,
2013-01-24 02:43:00,-1.0,-8.6,30.07,NNW,331,0.0,9.4,69,0.00,,,0.00,WUHU216PEETBRO,2013-01-24 07:43:00,
2013-01-24 02:48:00,-1.6,-9.2,30.06,NNW,331,0.0,11.0,69,0.00,,,0.00,WUHU216PEETBRO,2013-01-24 07:48:00,
2013-01-24 02:53:00,-1.0,-8.4,30.06,NNW,334,1.9,11.0,70,0.00,,,0.00,WUHU216PEETBRO,2013-01-24 07:53:00,
2013-01-24 02:58:00,-1.6,-9.2,30.06,North,350,4.2,9.5,69,0.00,,,0.00,WUHU216PEETBRO,2013-01-24 07:58:00,
2013-01-24 03:03:00,-1.4,-9.0,30.06,NNW,335,4.6,10.2,69,0.00,,,0.00,WUHU216PEETBRO,2013-01-24 08:03:00,
2013-01-24 03:08:00,-1.7,-9.4,30.06,North,355,5.8,10.2,69,0.00,,,0.00,WUHU216PEETBRO,2013-01-24 08:08:00,
2013-01-24 03:13:00,-1.7,-9.4,30.06,NNW,333,2.8,9.8,69,0.00,,,0.00,WUHU216PEETBRO,2013-01-24 08:13:00,
2013-01-24 03:18:00,-1.6,-9.4,30.06,NNW,337,0.0,9.8,69,0.00,,,0.00,WUHU216PEETBRO,2013-01-24 08:18:00,
2013-01-24 03:23:00,-1.9,-9.8,30.06,NNW,338,0.0,7.8,68,0.00,,,0.00,WUHU216PEETBRO,2013-01-24 08:23:00,
2013-01-24 03:28:00,-1.6,-9.3,30.06,North,349,5.2,8.4,69,0.00,,,0.00,WUHU216PEETBRO,2013-01-24 08:28:00,
2013-01-24 03:33:00,-1.4,-9.0,30.06,NNW,328,4.2,8.4,69,0.00,,,0.00,WUHU216PEETBRO,2013-01-24 08:33:00,
2013-01-24 03:38:00,-1.7,-9.4,30.06,NNW,340,0.0,11.2,69,0.00,,,0.00,WUHU216PEETBRO,2013-01-24 08:38:00,
2013-01-24 03:43:00,-2.1,-9.7,30.06,North,349,5.0,11.2,69,0.00,,,0.00,WUHU216PEETBRO,2013-01-24 08:43:00,
2013-01-24 03:48:00,-1.9,-9.6,30.05,NNW,333,5.5,10.3,69,0.00,,,0.00,WUHU216PEETBRO,2013-01-24 08:48:00,
2013-01-24 03:53:00,-2.3,-10.0,30.06,NNW,333,6.5,10.3,69,0.00,,,0.00,WUHU216PEETBRO,2013-01-24 08:53:00,
2013-01-24 03:58:00,-2.4,-10.1,30.06,NNW,340,0.0,9.8,69,0.00,,,0.00,WUHU216PEETBRO,2013-01-24 08:58:00,
2013-01-24 04:03:00,-2.2,-9.9,30.06,NNW,345,4.8,10.1,69,0.00,,,0.00,WUHU216PEETBRO,2013-01-24 09:03:00,
2013-01-24 04:08:00,-2.1,-9.9,30.06,North,357,0.0,10.1,68,0.00,,,0.00,WUHU216PEETBRO,2013-01-24 09:08:00,
2013-01-24 04:13:00,-2.0,-9.8,30.06,NNW,347,0.0,7.3,68,0.00,,,0.00,WUHU216PEETBRO,2013-01-24 09:13:00,
2013-01-24 04:18:00,-2.4,-10.2,30.05,NNW,333,4.6,12.2,69,0.00,,,0.00,WUHU216PEETBRO,2013-01-24 09:18:00,
2013-01-24 04:23:00,-2.0,-10.0,30.05,NNW,334,3.1,12.2,68,0.00,,,0.00,WUHU216PEETBRO,2013-01-24 09:23:00,
2013-01-24 04:28:00,-1.7,-9.6,30.05,NNW,331,4.7,11.6,68,0.00,,,0.00,WUHU216PEETBRO,2013-01-24 09:28:00,
2013-01-24 04:33:00,-1.9,-9.9,30.05,NNW,338,5.5,10.1,68,0.00,,,0.00,WUHU216PEETBRO,2013-01-24 09:33:00,
2013-01-24 04:38:00,-1.9,-10.0,30.05,NNW,328,7.0,10.1,67,0.00,,,0.00,WUHU216PEETBRO,2013-01-24 09:38:00,
2013-01-24 04:43:00,-2.8,-11.1,30.05,NNW,331,3.3,12.0,67,0.00,,,0.00,WUHU216PEETBRO,2013-01-24 09:43:00,
2013-01-24 04:48:00,-2.6,-10.7,30.05,NNW,331,8.7,12.0,67,0.00,,,0.00,WUHU216PEETBRO,2013-01-24 09:48:00,
2013-01-24 04:53:00,-1.9,-10.0,30.05,NNW,328,7.9,10.3,67,0.00,,,0.00,WUHU216PEETBRO,2013-01-24 09:53:00,
2013-01-24 04:58:00,-2.0,-10.1,30.06,NW,325,1.4,10.3,68,0.00,,,0.00,WUHU216PEETBRO,2013-01-24 09:58:00,
2013-01-24 05:03:00,-2.3,-10.4,30.05,NW,324,2.9,10.4,67,0.00,,,0.00,WUHU216PEETBRO,2013-01-24 10:03:00,
2013-01-24 05:08:00,-2.1,-10.2,30.05,NNW,338,0.0,10.4,68,0.00,,,0.00,WUHU216PEETBRO,2013-01-24 10:08:00,
2013-01-24 05:13:00,-2.6,-10.6,30.05,NNW,331,0.0,9.7,68,0.00,,,0.00,WUHU216PEETBRO,2013-01-24 10:13:00,
2013-01-24 05:18:00,-2.4,-10.6,30.05,NNW,333,0.0,12.8,67,0.00,,,0.00,WUHU216PEETBRO,2013-01-24 10:18:00,
2013-01-24 05:23:00,-3.6,-11.8,30.05,NW,316,0.0,12.8,67,0.00,,,0.00,WUHU216PEETBRO,2013-01-24 10:23:00,
2013-01-24 05:28:00,-3.0,-11.0,30.05,North,349,2.6,8.7,68,0.00,,,0.00,WUHU216PEETBRO,2013-01-24 10:28:00,
2013-01-24 05:34:00,-2.8,-10.7,30.05,NNW,333,1.9,9.3,68,0.00,,,0.00,WUHU216PEETBRO,2013-01-24 10:34:00,
2013-01-24 05:39:00,-2.4,-10.6,30.05,NNW,335,2.7,10.1,67,0.00,,,0.00,WUHU216PEETBRO,2013-01-24 10:39:00,
2013-01-24 05:46:00,-2.9,-11.1,30.05,NNW,338,5.2,11.0,67,0.00,,,0.00,WUHU216PEETBRO,2013-01-24 10:46:00,
2013-01-24 05:51:00,-2.3,-10.8,30.05,NNW,334,1.3,11.4,66,0.00,,,0.00,WUHU216PEETBRO,2013-01-24 10:51:00,
2013-01-24 05:56:00,-2.2,-10.8,30.05,NNW,333,6.8,11.4,66,0.00,,,0.00,WUHU216PEETBRO,2013-01-24 10:56:00,
2013-01-24 06:01:00,-2.1,-11.1,30.05,NNW,340,1.1,11.6,65,0.00,,,0.00,WUHU216PEETBRO,2013-01-24 11:01:00,
2013-01-24 06:06:00,-1.8,-10.5,30.05,North,349,5.1,11.6,65,0.00,,,0.00,WUHU216PEETBRO,2013-01-24 11:06:00,
2013-01-24 06:11:00,-2.2,-11.2,30.05,North,350,8.1,11.6,64,0.00,,,0.00,WUHU216PEETBRO,2013-01-24 11:11:00,
2013-01-24 06:16:00,-2.1,-11.1,30.05,NNE,16,5.2,12.9,64,0.00,,,0.00,WUHU216PEETBRO,2013-01-24 11:16:00,
2013-01-24 06:21:00,-2.3,-11.8,30.06,NNW,333,1.7,13.4,63,0.00,,,0.00,WUHU216PEETBRO,2013-01-24 11:21:00,
2013-01-24 06:26:00,-1.9,-11.6,30.06,NNW,342,3.6,13.4,62,0.00,,,0.00,WUHU216PEETBRO,2013-01-24 11:26:00,
2013-01-24 06:31:00,-1.9,-11.1,30.05,NNW,338,4.5,12.6,64,0.00,,,0.00,WUHU216PEETBRO,2013-01-24 11:31:00,
2013-01-24 06:36:00,-1.9,-11.2,30.06,NNW,327,1.8,9.6,64,0.00,,,0.00,WUHU216PEETBRO,2013-01-24 11:36:00,
2013-01-24 06:41:00,-2.0,-11.2,30.06,NNW,342,5.7,9.9,64,0.00,,,0.00,WUHU216PEETBRO,2013-01-24 11:41:00,
2013-01-24 06:46:00,-2.0,-11.3,30.06,NNW,338,8.9,9.9,64,0.00,,,0.00,WUHU216PEETBRO,2013-01-24 11:46:00,
2013-01-24 06:51:00,-1.9,-11.1,30.06,NNE,30,1.2,9.8,64,0.00,,,0.00,WUHU216PEETBRO,2013-01-24 11:51:00,
2013-01-24 06:56:00,-2.4,-11.5,30.06,NNW,342,0.0,8.1,64,0.00,,,0.00,WUHU216PEETBRO,2013-01-24 11:56:00,
2013-01-24 07:01:00,-2.5,-11.3,30.06,NNW,334,0.0,10.1,65,0.00,,,0.00,WUHU216PEETBRO,2013-01-24 12:01:00,
2013-01-24 07:06:00,-2.5,-11.2,30.06,NNW,330,0.0,10.1,65,0.00,,,0.00,WUHU216PEETBRO,2013-01-24 12:06:00,
2013-01-24 07:11:00,-2.3,-11.1,30.07,NNW,333,0.0,9.4,65,0.00,,,0.00,WUHU216PEETBRO,2013-01-24 12:11:00,
2013-01-24 07:16:00,-2.5,-11.3,30.07,NNW,331,3.4,8.5,65,0.00,,,0.00,WUHU216PEETBRO,2013-01-24 12:16:00,
2013-01-24 07:21:00,-2.5,-11.2,30.07,NNW,333,0.0,8.5,65,0.00,,,0.00,WUHU216PEETBRO,2013-01-24 12:21:00,
2013-01-24 07:26:00,-2.9,-11.6,30.07,North,359,0.6,9.1,65,0.00,,,0.00,WUHU216PEETBRO,2013-01-24 12:26:00,
2013-01-24 07:31:00,-2.2,-10.7,30.07,NNW,331,0.0,9.1,66,0.00,,,0.00,WUHU216PEETBRO,2013-01-24 12:31:00,
2013-01-24 07:36:00,-2.2,-10.7,30.07,NW,314,0.0,9.6,66,0.00,,,0.00,WUHU216PEETBRO,2013-01-24 12:36:00,
2013-01-24 07:41:00,-2.0,-10.7,30.07,NNW,338,9.4,12.2,65,0.00,,,0.00,WUHU216PEETBRO,2013-01-24 12:41:00,
2013-01-24 07:46:00,-2.1,-10.9,30.07,NNW,327,1.6,12.2,65,0.00,,,0.00,WUHU216PEETBRO,2013-01-24 12:46:00,
2013-01-24 07:51:00,-1.7,-10.8,30.08,NNW,341,8.8,11.9,64,0.00,,,0.00,WUHU216PEETBRO,2013-01-24 12:51:00,
2013-01-24 07:56:00,-2.0,-11.3,30.08,NNW,330,8.8,12.1,63,0.00,,,0.00,WUHU216PEETBRO,2013-01-24 12:56:00,
2013-01-24 08:01:00,-1.3,-10.7,30.07,NNW,341,0.0,12.1,63,0.00,,,0.00,WUHU216PEETBRO,2013-01-24 13:01:00,
2013-01-24 08:06:00,-1.0,-10.5,30.08,NW,316,0.0,12.1,63,0.00,,,0.00,WUHU216PEETBRO,2013-01-24 13:06:00,
2013-01-24 08:11:00,-0.9,-10.8,30.08,NNW,338,4.9,13.6,62,0.00,,,0.00,WUHU216PEETBRO,2013-01-24 13:11:00,
2013-01-24 08:16:00,-0.6,-10.5,30.07,NNW,337,4.0,13.6,62,0.00,,,0.00,WUHU216PEETBRO,2013-01-24 13:16:00,
2013-01-24 08:21:00,-0.6,-11.3,30.07,NNW,330,8.2,16.8,59,0.00,,,0.00,WUHU216PEETBRO,2013-01-24 13:21:00,
2013-01-24 08:26:00,0.3,-11.0,30.07,NNW,348,5.2,16.8,58,0.00,,,0.00,WUHU216PEETBRO,2013-01-24 13:26:00,
2013-01-24 08:31:00,0.4,-11.5,30.07,NNW,327,3.9,13.9,56,0.00,,,0.00,WUHU216PEETBRO,2013-01-24 13:31:00,
2013-01-24 08:36:00,0.7,-11.1,30.07,NNW,328,4.0,13.7,57,0.00,,,0.00,WUHU216PEETBRO,2013-01-24 13:36:00,
2013-01-24 08:41:00,0.5,-11.8,30.07,NW,325,6.2,17.0,55,0.00,,,0.00,WUHU216PEETBRO,2013-01-24 13:41:00,
2013-01-24 08:46:00,1.2,-11.5,30.07,NW,324,6.8,17.1,54,0.00,,,0.00,WUHU216PEETBRO,2013-01-24 13:46:00,
2013-01-24 08:51:00,1.3,-11.9,30.07,NNW,340,9.6,20.3,53,0.00,,,0.00,WUHU216PEETBRO,2013-01-24 13:51:00,
2013-01-24 08:56:00,1.5,-11.7,30.07,NNW,331,9.5,20.3,53,0.00,,,0.00,WUHU216PEETBRO,2013-01-24 13:56:00,
2013-01-24 09:01:00,2.1,-11.3,30.07,NNW,341,7.1,19.4,53,0.00,,,0.00,WUHU216PEETBRO,2013-01-24 14:01:00,
2013-01-24 09:06:00,1.2,-12.1,30.07,NNE,13,1.2,19.4,53,0.00,,,0.00,WUHU216PEETBRO,2013-01-24 14:06:00,
2013-01-24 09:12:00,2.2,-11.5,30.07,North,352,5.3,20.9,52,0.00,,,0.00,WUHU216PEETBRO,2013-01-24 14:12:00,
2013-01-24 09:17:00,2.4,-11.4,30.07,North,357,6.6,20.9,52,0.00,,,0.00,WUHU216PEETBRO,2013-01-24 14:17:00,
2013-01-24 09:22:00,1.8,-12.4,30.07,NNW,334,9.4,20.0,51,0.00,,,0.00,WUHU216PEETBRO,2013-01-24 14:22:00,
2013-01-24 09:27:00,2.7,-11.8,30.07,NNW,333,5.0,23.9,50,0.00,,,0.00,WUHU216PEETBRO,2013-01-24 14:27:00,
2013-01-24 09:32:00,4.1,-10.4,30.07,NNW,344,9.3,23.9,50,0.00,,,0.00,WUHU216PEETBRO,2013-01-24 14:32:00,
2013-01-24 09:37:00,3.1,-11.7,30.07,NNW,337,8.5,24.8,49,0.00,,,0.00,WUHU216PEETBRO,2013-01-24 14:37:00,
2013-01-24 09:42:00,3.9,-11.0,30.07,North,350,14.2,24.8,49,0.00,,,0.00,WUHU216PEETBRO,2013-01-24 14:42:00,
2013-01-24 09:47:00,4.6,-10.7,30.07,NNW,344,7.4,22.4,48,0.00,,,0.00,WUHU216PEETBRO,2013-01-24 14:47:00,
2013-01-24 09:52:00,3.8,-11.0,30.07,NW,317,7.3,19.9,49,0.00,,,0.00,WUHU216PEETBRO,2013-01-24 14:52:00,
2013-01-24 09:57:00,4.6,-10.4,30.07,North,349,6.1,22.9,49,0.00,,,0.00,WUHU216PEETBRO,2013-01-24 14:57:00,
2013-01-24 10:02:00,4.0,-11.2,30.07,NNW,338,8.6,24.5,49,0.00,,,0.00,WUHU216PEETBRO,2013-01-24 15:02:00,
2013-01-24 10:07:00,5.2,-9.8,30.07,NW,321,4.4,24.5,49,0.00,,,0.00,WUHU216PEETBRO,2013-01-24 15:07:00,
2013-01-24 10:12:00,4.9,-10.3,30.07,North,349,9.6,22.9,49,0.00,,,0.00,WUHU216PEETBRO,2013-01-24 15:12:00,
2013-01-24 10:17:00,5.7,-9.3,30.07,North,358,12.6,23.9,49,0.00,,,0.00,WUHU216PEETBRO,2013-01-24 15:17:00,
2013-01-24 10:22:00,6.0,-8.9,30.07,NW,310,0.0,23.9,50,0.00,,,0.00,WUHU216PEETBRO,2013-01-24 15:22:00,
2013-01-24 10:27:00,5.6,-9.7,30.07,North,352,12.1,20.0,49,0.00,,,0.00,WUHU216PEETBRO,2013-01-24 15:27:00,
2013-01-24 10:32:00,5.7,-9.7,30.07,North,350,9.4,21.7,48,0.00,,,0.00,WUHU216PEETBRO,2013-01-24 15:32:00,
2013-01-24 10:37:00,5.8,-9.6,30.07,NNW,335,3.5,21.7,48,0.00,,,0.00,WUHU216PEETBRO,2013-01-24 15:37:00,
2013-01-24 10:42:00,6.4,-9.1,30.07,NNW,342,13.3,20.9,48,0.00,,,0.00,WUHU216PEETBRO,2013-01-24 15:42:00,
2013-01-24 10:47:00,6.6,-8.8,30.06,North,352,8.8,21.1,48,0.00,,,0.00,WUHU216PEETBRO,2013-01-24 15:47:00,
2013-01-24 10:52:00,6.5,-8.9,30.06,NNW,333,11.7,21.1,48,0.00,,,0.00,WUHU216PEETBRO,2013-01-24 15:52:00,
2013-01-24 10:57:00,7.0,-9.1,30.06,NNW,335,20.5,22.1,47,0.00,,,0.00,WUHU216PEETBRO,2013-01-24 15:57:00,
2013-01-24 11:02:00,7.6,-7.7,30.06,NNW,342,7.1,22.1,49,0.00,,,0.00,WUHU216PEETBRO,2013-01-24 16:02:00,
2013-01-24 11:07:00,7.7,-8.4,30.06,NNW,327,4.7,20.5,47,0.00,,,0.00,WUHU216PEETBRO,2013-01-24 16:07:00,
2013-01-24 11:12:00,7.6,-8.5,30.06,NNW,344,13.2,19.6,47,0.00,,,0.00,WUHU216PEETBRO,2013-01-24 16:12:00,
2013-01-24 11:17:00,8.2,-8.4,30.06,North,349,8.2,25.8,46,0.00,,,0.00,WUHU216PEETBRO,2013-01-24 16:17:00,
2013-01-24 11:22:00,7.8,-9.3,30.06,NNW,333,11.7,25.8,45,0.00,,,0.00,WUHU216PEETBRO,2013-01-24 16:22:00,
2013-01-24 11:27:00,7.3,-9.7,30.06,NW,325,14.7,25.0,45,0.00,,,0.00,WUHU216PEETBRO,2013-01-24 16:27:00,
2013-01-24 11:32:00,8.5,-8.5,30.06,NNW,331,3.4,22.7,45,0.00,,,0.00,WUHU216PEETBRO,2013-01-24 16:32:00,
2013-01-24 11:37:00,8.4,-8.1,30.05,North,357,15.4,22.7,46,0.00,,,0.00,WUHU216PEETBRO,2013-01-24 16:37:00,
2013-01-24 11:42:00,7.9,-8.3,30.05,NNW,328,8.3,22.1,47,0.00,,,0.00,WUHU216PEETBRO,2013-01-24 16:42:00,
2013-01-24 11:47:00,8.8,-7.9,30.05,North,352,19.4,25.7,46,0.00,,,0.00,WUHU216PEETBRO,2013-01-24 16:47:00,
2013-01-24 11:52:00,8.8,-8.1,30.05,NNW,338,6.2,25.7,46,0.00,,,0.00,WUHU216PEETBRO,2013-01-24 16:52:00,
2013-01-24 11:57:00,8.4,-8.4,30.05,NNW,344,8.6,28.8,46,0.00,,,0.00,WUHU216PEETBRO,2013-01-24 16:57:00,
2013-01-24 12:01:00,8.6,-8.6,30.04,North,351,11.1,28.9,45,0.00,,,0.00,WUHU216PEETBRO,2013-01-24 17:01:00,
2013-01-24 12:06:00,9.2,-7.0,30.04,North,354,11.3,28.9,47,0.00,,,0.00,WUHU216PEETBRO,2013-01-24 17:06:00,
2013-01-24 12:11:00,9.9,-6.7,30.04,North,1,7.6,24.4,46,0.00,,,0.00,WUHU216PEETBRO,2013-01-24 17:11:00,
2013-01-24 12:16:00,10.4,-7.4,30.04,NNW,331,13.1,25.0,44,0.00,,,0.00,WUHU216PEETBRO,2013-01-24 17:16:00,
2013-01-24 12:21:00,10.6,-7.2,30.04,North,11,11.2,25.0,44,0.00,,,0.00,WUHU216PEETBRO,2013-01-24 17:21:00,
2013-01-24 12:26:00,10.7,-7.0,30.04,NNW,327,5.0,23.1,44,0.00,,,0.00,WUHU216PEETBRO,2013-01-24 17:26:00,
2013-01-24 12:31:00,10.8,-7.5,30.04,North,359,6.7,22.9,43,0.00,,,0.00,WUHU216PEETBRO,2013-01-24 17:31:00,
2013-01-24 12:36:00,10.8,-6.9,30.03,North,6,6.7,22.9,44,0.00,,,0.00,WUHU216PEETBRO,2013-01-24 17:36:00,
2013-01-24 12:41:00,10.8,-7.0,30.03,NNW,327,15.1,24.5,44,0.00,,,0.00,WUHU216PEETBRO,2013-01-24 17:41:00,
2013-01-24 12:47:00,11.2,-7.3,30.03,NW,325,12.4,25.1,43,0.00,,,0.00,WUHU216PEETBRO,2013-01-24 17:47:00,
2013-01-24 12:52:00,11.7,-6.9,30.03,North,2,9.4,25.1,43,0.00,,,0.00,WUHU216PEETBRO,2013-01-24 17:52:00,
2013-01-24 12:57:00,11.7,-6.3,30.03,NNW,328,5.2,24.9,44,0.00,,,0.00,WUHU216PEETBRO,2013-01-24 17:57:00,
2013-01-24 13:02:00,12.1,-6.4,30.03,NNW,340,12.8,25.2,43,0.00,,,0.00,WUHU216PEETBRO,2013-01-24 18:02:00,
2013-01-24 13:07:00,12.1,-6.3,30.03,NNW,328,8.6,25.2,43,0.00,,,0.00,WUHU216PEETBRO,2013-01-24 18:07:00,
2013-01-24 13:12:00,12.6,-5.1,30.03,NNE,12,8.9,24.9,45,0.00,,,0.00,WUHU216PEETBRO,2013-01-24 18:12:00,
2013-01-24 13:17:00,12.5,-6.0,30.03,NNW,337,8.9,22.2,43,0.00,,,0.00,WUHU216PEETBRO,2013-01-24 18:17:00,
2013-01-24 13:22:00,12.2,-6.1,30.03,NNW,342,7.8,22.2,43,0.00,,,0.00,WUHU216PEETBRO,2013-01-24 18:22:00,
2013-01-24 13:27:00,12.0,-6.2,30.03,NNW,334,14.4,24.9,43,0.00,,,0.00,WUHU216PEETBRO,2013-01-24 18:27:00,
2013-01-24 13:33:00,12.0,-6.3,30.02,NNW,330,9.7,25.5,43,0.00,,,0.00,WUHU216PEETBRO,2013-01-24 18:33:00,
2013-01-24 13:38:00,12.2,-5.9,30.02,NW,325,8.8,25.5,44,0.00,,,0.00,WUHU216PEETBRO,2013-01-24 18:38:00,
2013-01-24 13:43:00,12.1,-6.0,30.01,North,358,14.2,24.9,44,0.00,,,0.00,WUHU216PEETBRO,2013-01-24 18:43:00,
2013-01-24 13:48:00,12.3,-6.2,30.01,NNW,327,13.8,21.6,43,0.00,,,0.00,WUHU216PEETBRO,2013-01-24 18:48:00,
2013-01-24 13:54:00,13.0,-5.4,30.01,NW,321,6.5,24.5,43,0.00,,,0.00,WUHU216PEETBRO,2013-01-24 18:54:00,
2013-01-24 13:59:00,12.7,-5.8,30.01,NW,323,8.6,24.5,43,0.00,,,0.00,WUHU216PEETBRO,2013-01-24 18:59:00,
2013-01-24 14:04:00,13.2,-5.4,30.01,North,354,5.7,19.9,43,0.00,,,0.00,WUHU216PEETBRO,2013-01-24 19:04:00,
2013-01-24 14:09:00,14.0,-4.2,30.01,North,352,12.7,17.3,44,0.00,,,0.00,WUHU216PEETBRO,2013-01-24 19:09:00,
2013-01-24 14:14:00,14.2,-4.1,30.01,North,349,8.3,19.8,44,0.00,,,0.00,WUHU216PEETBRO,2013-01-24 19:14:00,
2013-01-24 14:19:00,13.9,-4.3,30.01,North,351,12.4,19.8,44,0.00,,,0.00,WUHU216PEETBRO,2013-01-24 19:19:00,
2013-01-24 14:24:00,13.8,-5.1,30.01,North,349,4.1,19.8,42,0.00,,,0.00,WUHU216PEETBRO,2013-01-24 19:24:00,
2013-01-24 14:29:00,13.9,-4.9,30.02,NNW,331,8.5,19.9,43,0.00,,,0.00,WUHU216PEETBRO,2013-01-24 19:29:00,
2013-01-24 14:34:00,14.1,-3.8,30.01,NW,323,11.5,19.9,44,0.00,,,0.00,WUHU216PEETBRO,2013-01-24 19:34:00,
2013-01-24 14:39:00,13.9,-4.3,30.01,NNW,341,3.0,25.6,44,0.00,,,0.00,WUHU216PEETBRO,2013-01-24 19:39:00,
2013-01-24 14:44:00,14.5,-4.2,30.01,NNW,338,8.1,25.6,43,0.00,,,0.00,WUHU216PEETBRO,2013-01-24 19:44:00,
2013-01-24 14:49:00,15.2,-3.2,30.01,NNW,327,18.9,22.7,44,0.00,,,0.00,WUHU216PEETBRO,2013-01-24 19:49:00,
2013-01-24 14:54:00,14.7,-4.1,30.01,NW,321,10.7,26.2,43,0.00,,,0.00,WUHU216PEETBRO,2013-01-24 19:54:00,
2013-01-24 14:59:00,14.4,-5.2,30.01,NNW,348,9.9,29.2,41,0.00,,,0.00,WUHU216PEETBRO,2013-01-24 19:59:00,
2013-01-24 15:04:00,14.5,-5.0,30.01,North,351,6.8,29.2,41,0.00,,,0.00,WUHU216PEETBRO,2013-01-24 20:04:00,
2013-01-24 15:09:00,14.6,-4.5,30.01,NNW,333,8.8,21.9,42,0.00,,,0.00,WUHU216PEETBRO,2013-01-24 20:09:00,
2013-01-24 15:14:00,14.7,-4.3,30.01,NNW,348,7.9,21.9,42,0.00,,,0.00,WUHU216PEETBRO,2013-01-24 20:14:00,
2013-01-24 15:19:00,14.8,-4.3,30.01,North,2,5.6,27.5,42,0.00,,,0.00,WUHU216PEETBRO,2013-01-24 20:19:00,
2013-01-24 15:24:00,14.3,-5.2,30.01,NW,323,11.3,27.5,41,0.00,,,0.00,WUHU216PEETBRO,2013-01-24 20:24:00,
2013-01-24 15:29:00,14.5,-5.1,30.01,NNW,328,6.7,25.5,41,0.00,,,0.00,WUHU216PEETBRO,2013-01-24 20:29:00,
2013-01-24 15:34:00,15.1,-3.7,30.01,NNW,330,7.5,25.2,43,0.00,,,0.00,WUHU216PEETBRO,2013-01-24 20:34:00,
2013-01-24 15:39:00,14.5,-4.5,30.01,NNW,337,6.0,24.3,42,0.00,,,0.00,WUHU216PEETBRO,2013-01-24 20:39:00,
2013-01-24 15:44:00,14.4,-4.7,30.02,WNW,297,10.4,21.4,42,0.00,,,0.00,WUHU216PEETBRO,2013-01-24 20:44:00,
2013-01-24 15:49:00,14.4,-4.9,30.02,NW,321,7.4,22.3,42,0.00,,,0.00,WUHU216PEETBRO,2013-01-24 20:49:00,
2013-01-24 15:54:00,13.8,-4.5,30.02,NNW,328,7.3,23.7,43,0.00,,,0.00,WUHU216PEETBRO,2013-01-24 20:54:00,
2013-01-24 15:59:00,13.5,-6.0,30.03,NNW,342,9.1,23.7,41,0.00,,,0.00,WUHU216PEETBRO,2013-01-24 20:59:00,
2013-01-24 16:04:00,14.3,-4.8,30.02,NNW,331,17.8,23.5,42,0.00,,,0.00,WUHU216PEETBRO,2013-01-24 21:04:00,
2013-01-24 16:09:00,14.0,-5.2,30.02,NNW,327,7.1,23.5,42,0.00,,,0.00,WUHU216PEETBRO,2013-01-24 21:09:00,
2013-01-24 16:14:00,13.9,-4.8,30.03,NNW,340,17.6,20.4,43,0.00,,,0.00,WUHU216PEETBRO,2013-01-24 21:14:00,
2013-01-24 16:19:00,14.0,-5.2,30.03,North,349,6.6,29.8,42,0.00,,,0.00,WUHU216PEETBRO,2013-01-24 21:19:00,
2013-01-24 16:24:00,13.5,-5.4,30.03,NW,321,12.7,29.8,42,0.00,,,0.00,WUHU216PEETBRO,2013-01-24 21:24:00,
2013-01-24 16:29:00,13.8,-4.5,30.03,NNW,333,3.9,20.7,44,0.00,,,0.00,WUHU216PEETBRO,2013-01-24 21:29:00,
2013-01-24 16:34:00,13.2,-5.1,30.03,NNW,330,8.1,21.4,43,0.00,,,0.00,WUHU216PEETBRO,2013-01-24 21:34:00,
2013-01-24 16:39:00,13.1,-5.5,30.03,NW,325,0.0,23.0,43,0.00,,,0.00,WUHU216PEETBRO,2013-01-24 21:39:00,
2013-01-24 16:44:00,13.1,-5.2,30.03,NNW,341,7.8,23.0,43,0.00,,,0.00,WUHU216PEETBRO,2013-01-24 21:44:00,
2013-01-24 16:49:00,12.5,-5.2,30.03,North,350,15.0,22.4,44,0.00,,,0.00,WUHU216PEETBRO,2013-01-24 21:49:00,
2013-01-24 16:54:00,13.0,-5.5,30.04,NNW,331,6.1,22.4,43,0.00,,,0.00,WUHU216PEETBRO,2013-01-24 21:54:00,
2013-01-24 16:59:00,12.2,-6.0,30.04,NNW,342,7.0,22.3,43,0.00,,,0.00,WUHU216PEETBRO,2013-01-24 21:59:00,
2013-01-24 17:04:00,12.2,-5.6,30.04,NNW,333,6.0,19.0,44,0.00,,,0.00,WUHU216PEETBRO,2013-01-24 22:04:00,
2013-01-24 17:09:00,12.6,-5.9,30.04,North,350,4.5,21.1,43,0.00,,,0.00,WUHU216PEETBRO,2013-01-24 22:09:00,
2013-01-24 17:14:00,12.4,-5.7,30.04,NNW,345,8.9,21.1,44,0.00,,,0.00,WUHU216PEETBRO,2013-01-24 22:14:00,
2013-01-24 17:19:00,12.9,-4.7,30.04,NW,323,5.7,20.8,45,0.00,,,0.00,WUHU216PEETBRO,2013-01-24 22:19:00,
2013-01-24 17:24:00,12.5,-5.6,30.04,NNW,335,15.6,24.4,44,0.00,,,0.00,WUHU216PEETBRO,2013-01-24 22:24:00,
2013-01-24 17:29:00,12.5,-5.6,30.04,NNW,348,5.7,24.4,44,0.00,,,0.00,WUHU216PEETBRO,2013-01-24 22:29:00,
2013-01-24 17:34:00,12.9,-5.3,30.05,NNW,345,7.1,19.4,44,0.00,,,0.00,WUHU216PEETBRO,2013-01-24 22:34:00,
2013-01-24 17:39:00,12.3,-5.7,30.04,NNW,338,6.8,16.5,44,0.00,,,0.00,WUHU216PEETBRO,2013-01-24 22:39:00,
2013-01-24 17:44:00,12.1,-5.8,30.04,NNW,341,9.3,14.8,44,0.00,,,0.00,WUHU216PEETBRO,2013-01-24 22:44:00,
2013-01-24 17:49:00,12.0,-4.8,30.04,NNW,340,5.3,14.8,46,0.00,,,0.00,WUHU216PEETBRO,2013-01-24 22:49:00,
2013-01-24 17:54:00,12.1,-5.2,30.05,NNW,340,0.0,14.7,45,0.00,,,0.00,WUHU216PEETBRO,2013-01-24 22:54:00,
2013-01-24 17:59:00,12.5,-5.6,30.05,North,349,0.0,14.7,44,0.00,,,0.00,WUHU216PEETBRO,2013-01-24 22:59:00,
2013-01-24 18:04:00,11.3,-6.9,30.06,NNW,335,7.3,14.5,43,0.00,,,0.00,WUHU216PEETBRO,2013-01-24 23:04:00,
2013-01-24 18:09:00,12.3,-5.5,30.06,North,351,8.5,16.8,44,0.00,,,0.00,WUHU216PEETBRO,2013-01-24 23:09:00,
2013-01-24 18:14:00,11.4,-6.2,30.06,North,349,9.3,16.8,44,0.00,,,0.00,WUHU216PEETBRO,2013-01-24 23:14:00,
2013-01-24 18:19:00,11.9,-5.7,30.06,NNW,342,7.5,20.6,45,0.00,,,0.00,WUHU216PEETBRO,2013-01-24 23:19:00,
2013-01-24 18:24:00,12.2,-5.1,30.06,NNW,342,6.4,22.0,45,0.00,,,0.00,WUHU216PEETBRO,2013-01-24 23:24:00,
2013-01-24 18:29:00,12.4,-5.7,30.06,NW,325,9.8,25.6,44,0.00,,,0.00,WUHU216PEETBRO,2013-01-24 23:29:00,
2013-01-24 18:34:00,11.7,-5.9,30.07,NNW,333,9.5,25.6,45,0.00,,,0.00,WUHU216PEETBRO,2013-01-24 23:34:00,
2013-01-24 18:39:00,12.2,-5.8,30.07,NNW,331,2.7,20.6,44,0.00,,,0.00,WUHU216PEETBRO,2013-01-24 23:39:00,
2013-01-24 18:44:00,12.3,-5.5,30.07,NNW,345,10.9,21.5,44,0.00,,,0.00,WUHU216PEETBRO,2013-01-24 23:44:00,
2013-01-24 18:50:00,12.1,-5.8,30.07,NNW,344,17.5,21.5,44,0.00,,,0.00,WUHU216PEETBRO,2013-01-24 23:50:00,
2013-01-24 18:55:00,12.3,-5.9,30.08,NW,324,14.2,21.4,44,0.00,,,0.00,WUHU216PEETBRO,2013-01-24 23:55:00,
2013-01-24 19:00:00,11.7,-6.3,30.08,North,349,10.5,24.2,44,0.00,,,0.00,WUHU216PEETBRO,2013-01-25 00:00:00,
2013-01-24 19:05:00,12.0,-5.7,30.08,NNW,341,6.5,24.2,45,0.00,,,0.00,WUHU216PEETBRO,2013-01-25 00:05:00,
2013-01-24 19:10:00,11.4,-6.5,30.08,North,357,7.1,21.8,44,0.00,,,0.00,WUHU216PEETBRO,2013-01-25 00:10:00,
2013-01-24 19:15:00,11.3,-6.2,30.08,NNW,347,8.6,20.4,45,0.00,,,0.00,WUHU216PEETBRO,2013-01-25 00:15:00,
2013-01-24 19:20:00,10.3,-6.6,30.08,North,6,7.1,17.7,46,0.00,,,0.00,WUHU216PEETBRO,2013-01-25 00:20:00,
2013-01-24 19:25:00,11.0,-6.3,30.08,North,349,6.5,22.2,45,0.00,,,0.00,WUHU216PEETBRO,2013-01-25 00:25:00,
2013-01-24 19:30:00,11.4,-5.6,30.09,NNW,327,8.4,22.2,46,0.00,,,0.00,WUHU216PEETBRO,2013-01-25 00:30:00,
2013-01-24 19:35:00,11.9,-5.5,30.09,NNW,348,5.2,21.2,45,0.00,,,0.00,WUHU216PEETBRO,2013-01-25 00:35:00,
2013-01-24 19:40:00,10.9,-6.1,30.09,North,349,8.7,21.2,46,0.00,,,0.00,WUHU216PEETBRO,2013-01-25 00:40:00,
2013-01-24 19:45:00,11.1,-5.9,30.09,NNW,345,7.0,16.3,46,0.00,,,0.00,WUHU216PEETBRO,2013-01-25 00:45:00,
2013-01-24 19:50:00,11.4,-6.0,30.09,North,349,7.5,28.3,45,0.00,,,0.00,WUHU216PEETBRO,2013-01-25 00:50:00,
2013-01-24 20:00:00,11.1,-5.7,30.08,NNW,337,9.5,18.0,46,0.00,,,0.00,WUHU216PEETBRO,2013-01-25 01:00:00,
2013-01-24 20:05:00,11.3,-5.2,30.09,NNW,334,7.5,17.3,47,0.00,,,0.00,WUHU216PEETBRO,2013-01-25 01:05:00,
2013-01-24 20:10:00,11.1,-5.1,30.09,North,349,10.9,16.0,48,0.00,,,0.00,WUHU216PEETBRO,2013-01-25 01:10:00,
2013-01-24 20:15:00,10.9,-5.5,30.09,ENE,60,0.0,14.4,47,0.00,,,0.00,WUHU216PEETBRO,2013-01-25 01:15:00,
2013-01-24 20:20:00,10.9,-5.6,30.10,NNW,337,1.3,16.0,47,0.00,,,0.00,WUHU216PEETBRO,2013-01-25 01:20:00,
2013-01-24 20:25:00,10.4,-6.0,30.10,NNE,25,1.8,22.8,47,0.00,,,0.00,WUHU216PEETBRO,2013-01-25 01:25:00,
2013-01-24 20:30:00,10.5,-5.9,30.10,North,349,7.8,22.8,47,0.00,,,0.00,WUHU216PEETBRO,2013-01-25 01:30:00,
2013-01-24 20:35:00,10.4,-6.3,30.11,North,349,6.2,15.3,46,0.00,,,0.00,WUHU216PEETBRO,2013-01-25 01:35:00,
2013-01-24 20:40:00,9.7,-6.8,30.11,NNW,340,11.4,16.0,47,0.00,,,0.00,WUHU216PEETBRO,2013-01-25 01:40:00,
2013-01-24 20:45:00,9.6,-6.5,30.11,North,359,18.0,27.4,47,0.00,,,0.00,WUHU216PEETBRO,2013-01-25 01:45:00,
2013-01-24 20:50:00,10.5,-6.1,30.11,NW,325,5.1,27.4,47,0.00,,,0.00,WUHU216PEETBRO,2013-01-25 01:50:00,
2013-01-24 20:55:00,10.2,-6.1,30.11,NNW,331,14.9,22.4,47,0.00,,,0.00,WUHU216PEETBRO,2013-01-25 01:55:00,
2013-01-24 21:00:00,10.1,-6.1,30.11,NE,45,9.9,26.0,47,0.00,,,0.00,WUHU216PEETBRO,2013-01-25 02:00:00,
2013-01-24 21:05:00,9.9,-6.0,30.11,NNW,344,3.8,26.0,48,0.00,,,0.00,WUHU216PEETBRO,2013-01-25 02:05:00,
2013-01-24 21:10:00,9.9,-6.2,30.11,North,359,6.9,22.6,48,0.00,,,0.00,WUHU216PEETBRO,2013-01-25 02:10:00,
2013-01-24 21:15:00,10.6,-5.5,30.11,NNW,330,5.2,24.2,48,0.00,,,0.00,WUHU216PEETBRO,2013-01-25 02:15:00,
2013-01-24 21:20:00,9.6,-6.2,30.11,NNW,337,12.9,24.2,48,0.00,,,0.00,WUHU216PEETBRO,2013-01-25 02:20:00,
2013-01-24 21:25:00,9.9,-5.7,30.12,NNW,344,12.0,23.2,49,0.00,,,0.00,WUHU216PEETBRO,2013-01-25 02:25:00,
2013-01-24 21:30:00,9.6,-6.0,30.12,North,355,16.4,26.2,49,0.00,,,0.00,WUHU216PEETBRO,2013-01-25 02:30:00,
2013-01-24 21:35:00,9.6,-5.6,30.12,North,351,15.5,26.2,50,0.00,,,0.00,WUHU216PEETBRO,2013-01-25 02:35:00,
2013-01-24 21:40:00,8.5,-6.5,30.12,NNW,344,7.1,22.1,50,0.00,,,0.00,WUHU216PEETBRO,2013-01-25 02:40:00,
2013-01-24 21:45:00,8.7,-6.4,30.13,North,351,10.3,23.5,50,0.00,,,0.00,WUHU216PEETBRO,2013-01-25 02:45:00,
2013-01-24 21:50:00,8.7,-6.1,30.13,North,349,8.9,23.5,50,0.00,,,0.00,WUHU216PEETBRO,2013-01-25 02:50:00,
2013-01-24 21:55:00,9.0,-5.6,30.13,North,350,7.3,22.8,51,0.00,,,0.00,WUHU216PEETBRO,2013-01-25 02:55:00,
2013-01-24 22:00:00,8.7,-5.4,30.12,NW,323,4.1,22.8,52,0.00,,,0.00,WUHU216PEETBRO,2013-01-25 03:00:00,
2013-01-24 22:05:00,8.6,-5.5,30.12,North,349,4.2,20.5,52,0.00,,,0.00,WUHU216PEETBRO,2013-01-25 03:05:00,
2013-01-24 22:10:00,8.8,-5.5,30.12,North,9,7.2,22.6,52,0.00,,,0.00,WUHU216PEETBRO,2013-01-25 03:10:00,
2013-01-24 22:15:00,8.4,-5.8,30.13,NW,325,14.2,22.6,52,0.00,,,0.00,WUHU216PEETBRO,2013-01-25 03:15:00,
2013-01-24 22:20:00,8.0,-6.2,30.13,NW,325,15.4,23.6,52,0.00,,,0.00,WUHU216PEETBRO,2013-01-25 03:20:00,
2013-01-24 22:25:00,8.5,-5.3,30.12,North,354,1.4,23.6,53,0.00,,,0.00,WUHU216PEETBRO,2013-01-25 03:25:00,
2013-01-24 22:30:00,8.0,-5.9,30.12,NNE,23,1.4,22.9,52,0.00,,,0.00,WUHU216PEETBRO,2013-01-25 03:30:00,
2013-01-24 22:35:00,8.3,-5.6,30.14,NNW,345,3.2,22.9,53,0.00,,,0.00,WUHU216PEETBRO,2013-01-25 03:35:00,
2013-01-24 22:40:00,8.3,-5.6,30.13,NNW,341,7.1,21.3,52,0.00,,,0.00,WUHU216PEETBRO,2013-01-25 03:40:00,
2013-01-24 22:45:00,8.5,-5.2,30.14,NNW,344,12.1,21.3,53,0.00,,,0.00,WUHU216PEETBRO,2013-01-25 03:45:00,
2013-01-24 22:50:00,8.5,-4.8,30.13,NNW,348,3.5,30.3,54,0.00,,,0.00,WUHU216PEETBRO,2013-01-25 03:50:00,
2013-01-24 22:55:00,8.0,-5.2,30.14,NNW,330,7.6,30.3,54,0.00,,,0.00,WUHU216PEETBRO,2013-01-25 03:55:00,
2013-01-24 23:00:00,7.9,-5.4,30.14,NNW,335,17.0,22.8,54,0.00,,,0.00,WUHU216PEETBRO,2013-01-25 04:00:00,
2013-01-24 23:05:00,8.2,-5.3,30.14,North,349,7.1,26.2,53,0.00,,,0.00,WUHU216PEETBRO,2013-01-25 04:05:00,
2013-01-24 23:10:00,7.9,-5.3,30.14,NW,324,9.4,26.2,54,0.00,,,0.00,WUHU216PEETBRO,2013-01-25 04:10:00,
2013-01-24 23:15:00,7.8,-5.2,30.14,NNW,342,6.3,25.5,55,0.00,,,0.00,WUHU216PEETBRO,2013-01-25 04:15:00,
2013-01-24 23:20:00,8.4,-4.5,30.15,NNW,345,7.0,23.4,55,0.00,,,0.00,WUHU216PEETBRO,2013-01-25 04:20:00,
2013-01-24 23:25:00,8.0,-4.6,30.14,North,352,7.8,18.4,56,0.00,,,0.00,WUHU216PEETBRO,2013-01-25 04:25:00,
2013-01-24 23:30:00,8.1,-3.9,30.14,North,1,9.3,21.6,57,0.00,,,0.00,WUHU216PEETBRO,2013-01-25 04:30:00,
2013-01-24 23:35:00,7.8,-4.4,30.14,NNW,338,5.7,21.6,57,0.00,,,0.00,WUHU216PEETBRO,2013-01-25 04:35:00,
2013-01-24 23:40:00,7.8,-4.5,30.14,NNW,340,8.9,24.5,56,0.00,,,0.00,WUHU216PEETBRO,2013-01-25 04:40:00,
2013-01-24 23:45:00,7.9,-4.2,30.15,North,5,8.7,24.5,57,0.00,,,0.00,WUHU216PEETBRO,2013-01-25 04:45:00,
2013-01-24 23:50:00,7.2,-4.6,30.14,NW,325,12.7,28.3,58,0.00,,,0.00,WUHU216PEETBRO,2013-01-25 04:50:00,
2013-01-24 23:55:00,7.9,-4.0,30.15,North,358,9.4,28.3,57,0.00,,,0.00,WUHU216PEETBRO,2013-01-25 04:55:00,